Wetterdaten: Woche 22.03.10 - 28.03.10 (KW12)
Datum Zeit Temp. A. Feuchte A. Luftdruck Regen Wind Richtung Taupunkt Windchill Windben
22.03.2010 00:00 8,3 C 84 % 1021,6 hPa 0,0 l/m 0,0 km/h NO 5,8 C 8,3 C 0,0 km/h
22.03.2010 01:00 8,1 C 85 % 1021,3 hPa 0,0 l/m 0,0 km/h NO 5,7 C 8,1 C 0,0 km/h
22.03.2010 02:00 7,9 C 86 % 1021,0 hPa 0,0 l/m 0,0 km/h O 5,7 C 7,9 C 0,0 km/h
22.03.2010 03:00 7,0 C 88 % 1020,9 hPa 0,0 l/m 0,0 km/h O 5,2 C 7,0 C 0,0 km/h
22.03.2010 04:00 5,5 C 89 % 1021,1 hPa 0,0 l/m 0,0 km/h SO 3,8 C 5,5 C 0,0 km/h
22.03.2010 05:00 3,6 C 90 % 1021,0 hPa 0,0 l/m 0,0 km/h O-NO 2,1 C 3,6 C 0,0 km/h
22.03.2010 06:00 3,3 C 91 % 1021,0 hPa 0,0 l/m 0,0 km/h SO 2,0 C 3,3 C 0,0 km/h
22.03.2010 07:00 5,9 C 93 % 1021,0 hPa 0,0 l/m 0,6 km/h S-SO 4,9 C 5,9 C 0,4 km/h
22.03.2010 08:00 11,3 C 75 % 1021,2 hPa 0,0 l/m 4,5 km/h W-SW 7,0 C 11,3 C 2,5 km/h
22.03.2010 09:00 14,5 C 60 % 1020,8 hPa 0,0 l/m 3,2 km/h N-NW 6,8 C 14,5 C 1,8 km/h
22.03.2010 10:00 17,1 C 56 % 1020,6 hPa 0,0 l/m 3,2 km/h W 8,3 C 17,1 C 1,8 km/h
22.03.2010 11:00 17,8 C 52 % 1020,3 hPa 0,0 l/m 14,3 km/h W 7,8 C 14,8 C 7,9 km/h
22.03.2010 12:00 17,8 C 51 % 1019,8 hPa 0,0 l/m 2,6 km/h W 7,5 C 17,8 C 1,4 km/h
22.03.2010 13:00 18,9 C 47 % 1018,8 hPa 0,0 l/m 7,8 km/h W 7,3 C 18,3 C 4,3 km/h
22.03.2010 14:00 19,9 C 45 % 1018,3 hPa 0,0 l/m 0,0 km/h N-NW 7,6 C 19,9 C 0,0 km/h
22.03.2010 15:00 21,8 C 41 % 1018,3 hPa 0,0 l/m 13,6 km/h NW 8,0 C 19,7 C 7,6 km/h
22.03.2010 16:00 17,2 C 45 % 1018,4 hPa 0,0 l/m 2,6 km/h W-NW 5,2 C 17,2 C 1,4 km/h
22.03.2010 17:00 14,8 C 57 % 1018,2 hPa 0,0 l/m 0,0 km/h NO 6,4 C 14,8 C 0,0 km/h
22.03.2010 18:00 10,6 C 66 % 1018,2 hPa 0,0 l/m 0,0 km/h NO 4,5 C 10,6 C 0,0 km/h
22.03.2010 19:00 8,5 C 73 % 1018,6 hPa 0,0 l/m 0,0 km/h O-NO 3,9 C 8,5 C 0,0 km/h
22.03.2010 20:00 6,8 C 79 % 1018,9 hPa 0,0 l/m 0,0 km/h NO 3,4 C 6,8 C 0,0 km/h
22.03.2010 21:00 5,9 C 81 % 1019,0 hPa 0,0 l/m 0,0 km/h NO 2,9 C 5,9 C 0,0 km/h
22.03.2010 22:00 5,6 C 85 % 1019,3 hPa 0,0 l/m 5,8 km/h O-NO 3,3 C 5,6 C 3,2 km/h
22.03.2010 23:00 4,4 C 86 % 1019,3 hPa 0,0 l/m 0,0 km/h O-SO 2,3 C 4,4 C 0,0 km/h
23.03.2010 00:00 4,3 C 88 % 1019,2 hPa 0,0 l/m 3,9 km/h NO 2,5 C 4,3 C 2,2 km/h
23.03.2010 01:00 3,4 C 89 % 1019,1 hPa 0,0 l/m 0,0 km/h NO 1,8 C 3,4 C 0,0 km/h
23.03.2010 02:00 2,5 C 89 % 1019,3 hPa 0,0 l/m 0,0 km/h O-NO 0,9 C 2,5 C 0,0 km/h
23.03.2010 03:00 2,1 C 90 % 1019,6 hPa 0,0 l/m 0,0 km/h SO 0,6 C 2,1 C 0,0 km/h
23.03.2010 04:00 1,8 C 91 % 1019,4 hPa 0,0 l/m 0,0 km/h O-NO 0,5 C 1,8 C 0,0 km/h
23.03.2010 05:00 1,3 C 91 % 1019,6 hPa 0,0 l/m 0,0 km/h SO -0,0 C 1,3 C 0,0 km/h
23.03.2010 06:00 1,2 C 91 % 1020,2 hPa 0,0 l/m 1,3 km/h O-SO -0,1 C 1,2 C 0,7 km/h
23.03.2010 07:00 4,7 C 94 % 1020,1 hPa 0,0 l/m 0,0 km/h SO 3,8 C 4,7 C 0,0 km/h
23.03.2010 08:00 11,0 C 75 % 1020,0 hPa 0,0 l/m 5,8 km/h N-NW 6,7 C 11,0 C 3,2 km/h
23.03.2010 09:00 16,3 C 59 % 1020,1 hPa 0,0 l/m 0,0 km/h W 8,3 C 16,3 C 0,0 km/h
23.03.2010 10:00 19,1 C 49 % 1019,7 hPa 0,0 l/m 5,8 km/h S 8,1 C 19,1 C 3,2 km/h
23.03.2010 11:00 19,1 C 49 % 1019,0 hPa 0,0 l/m 0,0 km/h W-NW 8,1 C 19,1 C 0,0 km/h
23.03.2010 12:00 19,8 C 44 % 1018,1 hPa 0,0 l/m 0,0 km/h W 7,2 C 19,8 C 0,0 km/h
23.03.2010 13:00 20,4 C 43 % 1017,0 hPa 0,0 l/m 11,0 km/h W 7,4 C 18,8 C 6,1 km/h
23.03.2010 14:00 22,9 C 35 % 1016,2 hPa 0,0 l/m 0,0 km/h N-NW 6,6 C 22,9 C 0,0 km/h
23.03.2010 15:00 24,1 C 32 % 1015,2 hPa 0,0 l/m 7,1 km/h W-NW 6,4 C 23,9 C 4,0 km/h
23.03.2010 16:00 23,8 C 32 % 1014,7 hPa 0,0 l/m 4,5 km/h NW 6,1 C 23,8 C 2,5 km/h
23.03.2010 17:00 21,9 C 33 % 1014,3 hPa 0,0 l/m 0,0 km/h W-NW 4,9 C 21,9 C 0,0 km/h
23.03.2010 18:00 12,3 C 51 % 1014,4 hPa 0,0 l/m 0,0 km/h SO 2,5 C 12,3 C 0,0 km/h
23.03.2010 19:00 9,6 C 66 % 1014,5 hPa 0,0 l/m 0,0 km/h O-NO 3,6 C 9,6 C 0,0 km/h
23.03.2010 20:00 7,9 C 73 % 1014,8 hPa 0,0 l/m 0,0 km/h O-NO 3,4 C 7,9 C 0,0 km/h
23.03.2010 21:00 7,1 C 75 % 1014,5 hPa 0,0 l/m 0,0 km/h NO 3,0 C 7,1 C 0,0 km/h
23.03.2010 22:00 5,8 C 78 % 1014,4 hPa 0,0 l/m 1,9 km/h O 2,3 C 5,8 C 1,1 km/h
23.03.2010 23:00 5,6 C 77 % 1014,1 hPa 0,0 l/m 0,0 km/h O-NO 1,9 C 5,6 C 0,0 km/h
24.03.2010 00:00 4,9 C 80 % 1013,9 hPa 0,0 l/m 0,0 km/h NO 1,7 C 4,9 C 0,0 km/h
24.03.2010 01:00 3,8 C 82 % 1013,7 hPa 0,0 l/m 0,0 km/h SO 1,0 C 3,8 C 0,0 km/h
24.03.2010 02:00 2,6 C 84 % 1013,4 hPa 0,0 l/m 0,0 km/h NO 0,2 C 2,6 C 0,0 km/h
24.03.2010 03:00 2,2 C 88 % 1013,3 hPa 0,0 l/m 0,0 km/h O-NO 0,4 C 2,2 C 0,0 km/h
24.03.2010 04:00 2,4 C 88 % 1013,1 hPa 0,0 l/m 0,0 km/h NO 0,6 C 2,4 C 0,0 km/h
24.03.2010 05:00 2,1 C 89 % 1013,0 hPa 0,0 l/m 0,0 km/h O-SO 0,5 C 2,1 C 0,0 km/h
24.03.2010 06:00 1,3 C 89 % 1013,3 hPa 0,0 l/m 0,0 km/h NO -0,3 C 1,3 C 0,0 km/h
24.03.2010 07:00 5,1 C 89 % 1013,2 hPa 0,0 l/m 0,0 km/h O-NO 3,4 C 5,1 C 0,0 km/h
24.03.2010 08:00 13,6 C 64 % 1013,4 hPa 0,0 l/m 0,0 km/h NO 6,9 C 13,6 C 0,0 km/h
24.03.2010 09:00 16,5 C 55 % 1013,1 hPa 0,0 l/m 0,0 km/h O-NO 7,4 C 16,5 C 0,0 km/h
24.03.2010 10:00 19,2 C 49 % 1012,9 hPa 0,0 l/m 0,0 km/h N 8,2 C 19,2 C 0,0 km/h
24.03.2010 11:00 20,5 C 46 % 1012,1 hPa 0,0 l/m 0,0 km/h W 8,5 C 20,5 C 0,0 km/h
24.03.2010 12:00 21,8 C 43 % 1011,3 hPa 0,0 l/m 3,2 km/h N-NW 8,7 C 21,8 C 1,8 km/h
24.03.2010 13:00 23,7 C 39 % 1010,2 hPa 0,0 l/m 0,0 km/h SW 8,9 C 23,7 C 0,0 km/h
24.03.2010 14:00 26,4 C 35 % 1009,5 hPa 0,0 l/m 3,9 km/h O-NO 9,7 C 26,4 C 2,2 km/h
24.03.2010 15:00 25,4 C 30 % 1009,0 hPa 0,0 l/m 0,0 km/h O-NO 6,6 C 25,4 C 0,0 km/h
24.03.2010 16:00 21,8 C 37 % 1008,8 hPa 0,0 l/m 0,0 km/h NO 6,5 C 21,8 C 0,0 km/h
24.03.2010 17:00 25,0 C 35 % 1008,4 hPa 0,0 l/m 0,0 km/h NO 8,5 C 25,0 C 0,0 km/h
24.03.2010 18:00 15,2 C 52 % 1008,5 hPa 0,0 l/m 0,0 km/h S-SO 5,4 C 15,2 C 0,0 km/h
24.03.2010 19:00 11,9 C 65 % 1008,9 hPa 0,0 l/m 0,0 km/h SO 5,5 C 11,9 C 0,0 km/h
24.03.2010 20:00 11,0 C 68 % 1008,8 hPa 0,0 l/m 2,6 km/h SO 5,3 C 11,0 C 1,4 km/h
24.03.2010 21:00 10,1 C 70 % 1008,9 hPa 0,0 l/m 1,9 km/h O-NO 4,9 C 10,1 C 1,1 km/h
24.03.2010 22:00 9,3 C 73 % 1008,6 hPa 0,0 l/m 0,0 km/h SO 4,7 C 9,3 C 0,0 km/h
24.03.2010 23:00 8,8 C 73 % 1008,8 hPa 0,0 l/m 0,0 km/h SO 4,2 C 8,8 C 0,0 km/h
25.03.2010 00:00 8,1 C 76 % 1008,9 hPa 0,0 l/m 0,0 km/h NO 4,1 C 8,1 C 0,0 km/h
25.03.2010 01:00 6,8 C 80 % 1008,8 hPa 0,0 l/m 0,0 km/h SO 3,6 C 6,8 C 0,0 km/h
25.03.2010 02:00 6,2 C 82 % 1008,5 hPa 0,0 l/m 0,0 km/h O-NO 3,4 C 6,2 C 0,0 km/h
25.03.2010 03:00 6,4 C 82 % 1008,5 hPa 0,0 l/m 0,0 km/h O-NO 3,6 C 6,4 C 0,0 km/h
25.03.2010 04:00 6,7 C 82 % 1008,3 hPa 0,0 l/m 0,0 km/h SO 3,8 C 6,7 C 0,0 km/h
25.03.2010 05:00 6,6 C 81 % 1008,2 hPa 0,0 l/m 0,0 km/h SO 3,6 C 6,6 C 0,0 km/h
25.03.2010 06:00 7,5 C 80 % 1008,0 hPa 0,0 l/m 0,6 km/h SO 4,3 C 7,5 C 0,4 km/h
25.03.2010 07:00 9,1 C 75 % 1007,6 hPa 0,0 l/m 0,0 km/h S 4,9 C 9,1 C 0,0 km/h
25.03.2010 08:00 11,4 C 71 % 1008,4 hPa 0,0 l/m 0,0 km/h S-SO 6,3 C 11,4 C 0,0 km/h
25.03.2010 09:00 15,8 C 60 % 1008,1 hPa 0,0 l/m 0,0 km/h NO 8,1 C 15,8 C 0,0 km/h
25.03.2010 10:00 23,4 C 44 % 1007,5 hPa 0,0 l/m 0,0 km/h SO 10,4 C 23,4 C 0,0 km/h
25.03.2010 11:00 23,3 C 40 % 1006,9 hPa 0,0 l/m 0,0 km/h NW 8,9 C 23,3 C 0,0 km/h
25.03.2010 12:00 23,0 C 39 % 1006,4 hPa 0,0 l/m 3,2 km/h W-NW 8,3 C 23,0 C 1,8 km/h
25.03.2010 13:00 22,6 C 37 % 1006,2 hPa 0,0 l/m 8,4 km/h SO 7,2 C 22,0 C 4,7 km/h
25.03.2010 14:00 22,6 C 40 % 1005,8 hPa 0,0 l/m 4,5 km/h W-NW 8,3 C 22,6 C 2,5 km/h
25.03.2010 15:00 21,3 C 38 % 1005,9 hPa 0,0 l/m 0,0 km/h W-NW 6,4 C 21,3 C 0,0 km/h
25.03.2010 16:00 18,5 C 50 % 1006,2 hPa 0,0 l/m 0,0 km/h NO 7,9 C 18,5 C 0,0 km/h
25.03.2010 17:00 18,6 C 52 % 1005,8 hPa 0,0 l/m 0,0 km/h O-NO 8,5 C 18,6 C 0,0 km/h
25.03.2010 18:00 14,9 C 59 % 1005,9 hPa 0,0 l/m 0,0 km/h NO 7,0 C 14,9 C 0,0 km/h
25.03.2010 19:00 12,9 C 65 % 1006,1 hPa 0,0 l/m 0,0 km/h O-SO 6,5 C 12,9 C 0,0 km/h
25.03.2010 20:00 12,3 C 67 % 1006,2 hPa 0,0 l/m 0,0 km/h NO 6,4 C 12,3 C 0,0 km/h
25.03.2010 21:00 12,0 C 68 % 1006,5 hPa 0,0 l/m 7,8 km/h O-NO 6,3 C 11,1 C 4,3 km/h
25.03.2010 22:00 12,3 C 73 % 1007,5 hPa 0,0 l/m 3,2 km/h O-SO 7,6 C 12,3 C 1,8 km/h
25.03.2010 23:00 11,8 C 80 % 1008,0 hPa 0,0 l/m 0,0 km/h SO 8,5 C 11,8 C 0,0 km/h
26.03.2010 00:00 11,6 C 81 % 1008,1 hPa 0,0 l/m 0,0 km/h SO 8,5 C 11,6 C 0,0 km/h
26.03.2010 01:00 10,3 C 84 % 1008,1 hPa 0,0 l/m 0,0 km/h SO 7,7 C 10,3 C 0,0 km/h
26.03.2010 02:00 9,4 C 86 % 1007,3 hPa 0,0 l/m 0,0 km/h NO 7,2 C 9,4 C 0,0 km/h
26.03.2010 03:00 9,5 C 86 % 1007,0 hPa 0,0 l/m 9,7 km/h NO 7,3 C 7,2 C 5,4 km/h
26.03.2010 04:00 8,5 C 87 % 1006,7 hPa 0,0 l/m 11,7 km/h O-SO 6,5 C 4,9 C 6,5 km/h
26.03.2010 05:00 8,1 C 88 % 1006,1 hPa 0,0 l/m 0,0 km/h O 6,2 C 8,1 C 0,0 km/h
26.03.2010 06:00 8,1 C 88 % 1005,3 hPa 0,0 l/m 1,3 km/h NO 6,2 C 8,1 C 0,7 km/h
26.03.2010 07:00 10,5 C 83 % 1004,2 hPa 0,0 l/m 3,2 km/h NO 7,7 C 10,5 C 1,8 km/h
26.03.2010 08:00 12,8 C 77 % 1002,8 hPa 0,0 l/m 18,1 km/h S-SW 8,9 C 7,5 C 10,1 km/h
26.03.2010 09:00 16,6 C 69 % 1003,4 hPa 0,0 l/m 0,0 km/h SW 10,9 C 16,6 C 0,0 km/h
26.03.2010 10:00 9,9 C 80 % 1006,0 hPa 0,0 l/m 45,4 km/h W-SW 6,6 C -2,0 C 25,2 km/h
26.03.2010 11:00 8,4 C 86 % 1008,4 hPa 0,0 l/m 51,2 km/h W 6,2 C -4,9 C 28,4 km/h
26.03.2010 12:00 7,9 C 88 % 1009,3 hPa 0,0 l/m 15,6 km/h W 6,0 C 2,3 C 8,6 km/h
26.03.2010 13:00 7,2 C 87 % 1009,8 hPa 0,0 l/m 35,0 km/h SW 5,2 C -4,4 C 19,4 km/h
26.03.2010 14:00 8,1 C 82 % 1009,8 hPa 0,0 l/m 37,6 km/h SW 5,2 C -3,5 C 20,9 km/h
26.03.2010 15:00 7,6 C 83 % 1010,0 hPa 0,0 l/m 13,6 km/h SW 4,9 C 2,9 C 7,6 km/h
26.03.2010 16:00 8,1 C 81 % 1010,0 hPa 0,0 l/m 11,7 km/h S 5,0 C 4,5 C 6,5 km/h
26.03.2010 17:00 7,9 C 82 % 1010,2 hPa 0,0 l/m 13,6 km/h S 5,0 C 3,3 C 7,6 km/h
26.03.2010 18:00 8,4 C 79 % 1010,7 hPa 0,0 l/m 9,7 km/h S 5,0 C 6,0 C 5,4 km/h
26.03.2010 19:00 7,9 C 79 % 1010,7 hPa 0,0 l/m 6,5 km/h W-SW 4,5 C 7,8 C 3,6 km/h
26.03.2010 20:00 8,4 C 80 % 1011,3 hPa 0,0 l/m 30,5 km/h SW 5,2 C -1,7 C 16,9 km/h
26.03.2010 21:00 8,0 C 80 % 1011,5 hPa 0,0 l/m 0,0 km/h W 4,8 C 8,0 C 0,0 km/h
26.03.2010 22:00 7,5 C 83 % 1011,5 hPa 0,0 l/m 5,8 km/h S-SO 4,8 C 7,5 C 3,2 km/h
26.03.2010 23:00 6,3 C 87 % 1011,2 hPa 0,0 l/m 5,2 km/h S-SW 4,3 C 6,3 C 2,9 km/h
27.03.2010 00:00 6,9 C 84 % 1011,1 hPa 0,0 l/m 23,3 km/h S-SW 4,4 C -1,8 C 13,0 km/h
27.03.2010 01:00 7,1 C 82 % 1010,8 hPa 0,0 l/m 1,3 km/h W 4,2 C 7,1 C 0,7 km/h
27.03.2010 02:00 6,7 C 82 % 1010,3 hPa 0,0 l/m 1,3 km/h W-SW 3,8 C 6,7 C 0,7 km/h
27.03.2010 03:00 7,3 C 79 % 1009,7 hPa 0,0 l/m 20,1 km/h N-NO 3,9 C -0,2 C 11,2 km/h
27.03.2010 04:00 5,6 C 84 % 1009,0 hPa 0,0 l/m 0,0 km/h O 3,1 C 5,6 C 0,0 km/h
27.03.2010 05:00 3,8 C 89 % 1008,7 hPa 0,0 l/m 0,0 km/h SO 2,2 C 3,8 C 0,0 km/h
27.03.2010 06:00 4,3 C 90 % 1008,7 hPa 0,0 l/m 0,0 km/h NW 2,8 C 4,3 C 0,0 km/h
27.03.2010 07:00 5,1 C 90 % 1009,4 hPa 0,4 l/m 0,0 km/h SW 3,6 C 5,1 C 0,0 km/h
27.03.2010 08:00 6,3 C 87 % 1009,5 hPa 0,4 l/m 20,1 km/h W-SW 4,3 C -1,5 C 11,2 km/h
27.03.2010 09:00 11,8 C 71 % 1008,9 hPa 0,0 l/m 22,7 km/h W-SW 6,7 C 4,9 C 12,6 km/h
27.03.2010 10:00 10,9 C 63 % 1008,0 hPa 0,0 l/m 24,0 km/h W-SW 4,1 C 3,3 C 13,3 km/h
27.03.2010 11:00 12,1 C 64 % 1007,2 hPa 0,0 l/m 21,4 km/h W-SW 5,5 C 5,6 C 11,9 km/h
27.03.2010 12:00 13,8 C 59 % 1006,5 hPa 0,0 l/m 24,0 km/h W-SW 5,9 C 7,2 C 13,3 km/h
27.03.2010 13:00 9,3 C 80 % 1006,8 hPa 0,0 l/m 11,7 km/h W-SW 6,0 C 5,9 C 6,5 km/h
27.03.2010 14:00 11,1 C 75 % 1006,6 hPa 0,0 l/m 20,1 km/h W-SW 6,8 C 4,7 C 11,2 km/h
27.03.2010 15:00 11,6 C 70 % 1006,8 hPa 0,0 l/m 22,7 km/h W-SW 6,3 C 4,6 C 12,6 km/h
27.03.2010 16:00 10,2 C 78 % 1007,4 hPa 0,7 l/m 19,4 km/h S-SW 6,5 C 3,7 C 10,8 km/h
27.03.2010 17:00 10,7 C 77 % 1008,0 hPa 0,4 l/m 20,1 km/h W-SW 6,8 C 4,2 C 11,2 km/h
27.03.2010 18:00 9,5 C 76 % 1008,7 hPa 0,0 l/m 26,6 km/h N 5,5 C 0,7 C 14,8 km/h
Min-Datum _ 23.03.10 24.03.10 26.03.10 - 22.03.10 - 24.03.10 26.03.10 22.03.10
_ Min-Zeit 06:53 15:53 08:53 - 00:53 - 06:53 11:53 00:53
Minimum _ 1,2 C 30 % 1002,8 hPa - 0,0 km/h - -0,3 C -4,9 C 0,0 km/h
Max-Datum _ 24.03.10 23.03.10 22.03.10 27.03.10 26.03.10 - 26.03.10 24.03.10 26.03.10
_ Max-Zeit 14:53 07:53 00:53 16:53 11:53 - 09:53 14:53 11:53
Maximum _ 26,4 C 94 % 1021,6 hPa 0,7 l/m 51,2 km/h
W
- 10,9 C 26,4 C 28,4 km/h
W
Durchschnitt _ 11,2 C 71 % 1012,2 hPa #1,8 l/m 5,3 km/h NO 5,3 C 9,8 C 3,0 km/h